createdAt,value
2023-04-18T00:00:24.770Z,69.56
2023-04-18T00:03:16.630Z,69.47
2023-04-18T00:06:03.616Z,69.70
2023-04-18T00:08:50.199Z,69.78
2023-04-18T00:11:36.375Z,69.62
2023-04-18T00:14:23.167Z,69.80
2023-04-18T00:17:10.442Z,70.08
2023-04-18T00:19:58.391Z,70.01
2023-04-18T00:22:46.486Z,70.25
2023-04-18T00:25:33.630Z,70.28
2023-04-18T00:28:20.047Z,70.35
2023-04-18T00:31:08.315Z,70.32
2023-04-18T00:33:55.044Z,70.39
2023-04-18T00:36:43.242Z,70.23
2023-04-18T00:39:29.999Z,70.48
2023-04-18T00:42:16.751Z,70.46
2023-04-18T00:45:03.375Z,70.74
2023-04-18T00:47:49.874Z,70.58
2023-04-18T00:50:37.817Z,70.64
2023-04-18T00:53:24.547Z,70.69
2023-04-18T00:56:11.776Z,70.85
2023-04-18T00:58:59.320Z,70.83
2023-04-18T01:01:46.403Z,70.79
2023-04-18T01:04:33.096Z,70.77
2023-04-18T01:07:19.925Z,70.79
2023-04-18T01:10:08.120Z,71.08
2023-04-18T01:13:11.776Z,70.71
2023-04-18T01:15:59.170Z,70.89
2023-04-18T01:18:46.387Z,71.02
2023-04-18T01:21:36.189Z,71.00
2023-04-18T01:24:25.861Z,71.06
2023-04-18T01:27:16.086Z,71.15
2023-04-18T01:30:02.671Z,71.05
2023-04-18T01:32:49.759Z,71.26
2023-04-18T01:35:37.300Z,70.93
2023-04-18T01:38:23.686Z,71.25
2023-04-18T01:41:10.612Z,71.13
2023-04-18T01:43:57.080Z,71.10
2023-04-18T01:46:43.498Z,71.13
2023-04-18T01:49:29.794Z,71.14
2023-04-18T01:52:17.433Z,71.12
2023-04-18T01:55:06.040Z,71.07
2023-04-18T01:57:53.035Z,71.42
2023-04-18T02:00:39.717Z,71.32
2023-04-18T02:03:26.242Z,71.32
2023-04-18T02:06:12.814Z,71.32
2023-04-18T02:08:59.624Z,71.22
2023-04-18T02:11:45.918Z,71.43
2023-04-18T02:14:35.322Z,71.40
2023-04-18T02:17:23.753Z,71.59
2023-04-18T02:20:11.050Z,71.40
2023-04-18T02:23:01.086Z,71.49
2023-04-18T02:25:49.400Z,71.38
2023-04-18T02:28:39.280Z,71.57
2023-04-18T02:31:25.553Z,71.53
2023-04-18T02:34:12.407Z,71.65
2023-04-18T02:36:59.902Z,71.66
2023-04-18T02:39:46.466Z,71.73
2023-04-18T02:42:33.182Z,71.72
2023-04-18T02:45:20.828Z,71.77
2023-04-18T02:48:07.929Z,72.02
2023-04-18T02:51:03.410Z,72.08
2023-04-18T02:53:54.972Z,72.09
2023-04-18T02:56:42.916Z,72.32
2023-04-18T02:59:42.964Z,72.45
2023-04-18T03:02:48.202Z,72.48
2023-04-18T03:05:55.225Z,72.78
2023-04-18T03:08:42.243Z,72.66
2023-04-18T03:11:28.864Z,72.84
2023-04-18T03:14:16.185Z,72.92
2023-04-18T03:17:08.410Z,72.88
2023-04-18T03:19:58.655Z,73.06
2023-04-18T03:22:45.565Z,73.23
2023-04-18T03:25:32.712Z,73.27
2023-04-18T03:28:19.271Z,73.54
2023-04-18T03:31:06.003Z,73.47
2023-04-18T03:33:53.744Z,73.59
2023-04-18T03:36:40.840Z,73.64
2023-04-18T03:39:28.558Z,73.64
2023-04-18T03:42:16.075Z,73.80
2023-04-18T03:45:02.850Z,74.01
2023-04-18T03:47:50.991Z,73.62
2023-04-18T03:50:37.660Z,73.75
2023-04-18T03:53:24.730Z,73.84
2023-04-18T03:56:11.763Z,73.73
2023-04-18T03:59:10.925Z,73.58
2023-04-18T04:01:58.283Z,73.76
2023-04-18T04:04:45.383Z,73.71
2023-04-18T04:07:33.038Z,73.49
2023-04-18T04:10:19.969Z,73.53
2023-04-18T04:13:07.176Z,73.40
2023-04-18T04:15:56.951Z,73.55
2023-04-18T04:18:43.902Z,73.37
2023-04-18T04:21:31.894Z,73.26
2023-04-18T04:24:18.821Z,73.33
2023-04-18T04:27:06.446Z,73.20
2023-04-18T04:29:56.721Z,73.16
2023-04-18T04:32:44.818Z,73.19
2023-04-18T04:35:32.190Z,73.18
2023-04-18T04:38:23.144Z,73.02
2023-04-18T04:41:11.853Z,72.95
2023-04-18T04:43:59.656Z,72.80
2023-04-18T04:46:50.180Z,72.77
2023-04-18T04:49:39.813Z,72.83
2023-04-18T04:52:26.533Z,72.65
2023-04-18T04:55:13.513Z,72.43
2023-04-18T04:58:00.781Z,72.31
2023-04-18T05:00:58.851Z,72.40
2023-04-18T05:03:45.625Z,72.38
2023-04-18T05:06:32.381Z,72.27
2023-04-18T05:09:18.994Z,72.23
2023-04-18T05:12:06.085Z,72.08
2023-04-18T05:14:52.922Z,72.10
2023-04-18T05:17:39.407Z,72.26
2023-04-18T05:20:26.061Z,71.72
2023-04-18T05:23:13.140Z,71.85
2023-04-18T05:25:59.771Z,71.44
2023-04-18T05:28:46.283Z,71.40
2023-04-18T05:31:33.138Z,71.42
2023-04-18T05:34:19.857Z,71.55
2023-04-18T05:37:06.617Z,71.39
2023-04-18T05:39:52.997Z,71.24
2023-04-18T05:42:39.419Z,70.91
2023-04-18T05:45:26.296Z,71.05
2023-04-18T05:48:13.546Z,70.86
2023-04-18T05:51:00.496Z,70.58
2023-04-18T05:53:47.120Z,70.45
2023-04-18T05:56:33.889Z,70.62
2023-04-18T05:59:23.159Z,70.59
2023-04-18T06:02:13.566Z,70.21
2023-04-18T06:05:01.526Z,70.47
2023-04-18T06:07:48.695Z,70.54
2023-04-18T06:10:36.989Z,70.30
2023-04-18T06:13:25.485Z,70.15
2023-04-18T06:16:12.502Z,69.95
2023-04-18T06:19:01.191Z,69.99
2023-04-18T06:21:49.049Z,70.04
2023-04-18T06:24:35.727Z,69.87
2023-04-18T06:27:31.070Z,69.52
2023-04-18T06:30:22.017Z,69.23
2023-04-18T06:33:11.065Z,69.32
2023-04-18T06:35:58.875Z,69.03
2023-04-18T06:38:45.709Z,68.72
2023-04-18T06:41:32.175Z,68.89
2023-04-18T06:44:18.559Z,68.63
2023-04-18T06:47:06.006Z,68.48
2023-04-18T06:49:52.590Z,68.61
2023-04-18T06:52:44.251Z,68.07
2023-04-18T06:55:30.990Z,67.77
2023-04-18T06:58:17.862Z,67.66
2023-04-18T07:01:04.451Z,67.47
2023-04-18T07:03:51.264Z,67.17
2023-04-18T07:06:37.754Z,67.23
2023-04-18T07:09:24.061Z,66.86
2023-04-18T07:12:10.677Z,66.92
2023-04-18T07:14:57.406Z,66.62
2023-04-18T07:17:44.010Z,66.46
2023-04-18T07:20:30.819Z,66.20
2023-04-18T07:23:17.350Z,66.17
2023-04-18T07:26:05.783Z,66.05
2023-04-18T07:28:52.084Z,65.92
2023-04-18T07:31:38.746Z,65.42
2023-04-18T07:34:29.784Z,65.47
2023-04-18T07:37:18.375Z,65.10
2023-04-18T07:40:05.706Z,65.38
2023-04-18T07:42:53.146Z,64.92
2023-04-18T07:45:39.659Z,64.39
2023-04-18T07:48:26.145Z,64.21
2023-04-18T07:51:12.982Z,64.15
2023-04-18T07:53:59.609Z,63.68
2023-04-18T07:56:45.817Z,63.83
2023-04-18T07:59:32.371Z,63.24
2023-04-18T08:02:20.391Z,63.00
2023-04-18T08:05:07.970Z,62.90
2023-04-18T08:07:54.528Z,62.46
2023-04-18T08:10:41.018Z,63.12
2023-04-18T08:13:27.962Z,62.82
2023-04-18T08:16:16.360Z,62.23
2023-04-18T08:19:03.856Z,62.28
2023-04-18T08:21:52.001Z,61.07
2023-04-18T08:24:39.055Z,60.35
2023-04-18T08:27:25.840Z,60.04
2023-04-18T08:30:13.558Z,60.16
2023-04-18T08:33:00.709Z,59.69
2023-04-18T08:35:47.556Z,58.93
2023-04-18T08:38:34.285Z,58.86
2023-04-18T08:41:23.562Z,58.60
2023-04-18T08:44:10.043Z,57.90
2023-04-18T08:46:57.791Z,58.20
2023-04-18T08:49:46.673Z,58.04
2023-04-18T08:52:36.161Z,57.13
2023-04-18T08:55:24.665Z,57.13
2023-04-18T08:58:12.753Z,56.92
2023-04-18T09:00:59.719Z,56.18
2023-04-18T09:03:46.433Z,55.34
2023-04-18T09:06:33.605Z,54.87
2023-04-18T09:09:27.325Z,54.55
2023-04-18T09:12:18.296Z,54.21
2023-04-18T09:15:15.704Z,54.04
2023-04-18T09:18:03.212Z,53.95
2023-04-18T09:20:50.078Z,53.33
2023-04-18T09:23:38.655Z,52.04
2023-04-18T09:26:37.724Z,52.29
2023-04-18T09:29:47.090Z,52.15
2023-04-18T09:32:33.789Z,51.58
2023-04-18T09:35:25.956Z,51.31
2023-04-18T09:38:12.299Z,50.68
2023-04-18T09:41:09.256Z,51.04
2023-04-18T09:44:14.609Z,50.09
2023-04-18T09:47:02.547Z,49.62
2023-04-18T09:49:49.004Z,49.79
2023-04-18T09:52:38.539Z,49.07
2023-04-18T09:55:25.451Z,48.74
2023-04-18T09:58:13.306Z,48.90
2023-04-18T10:01:00.763Z,48.54
2023-04-18T10:03:51.327Z,48.47
2023-04-18T10:06:39.910Z,47.52
2023-04-18T10:09:31.522Z,47.92
2023-04-18T10:12:18.853Z,47.26
2023-04-18T10:15:06.761Z,47.59
2023-04-18T10:18:03.765Z,47.44
2023-04-18T10:21:01.938Z,47.07
2023-04-18T10:23:48.907Z,48.18
2023-04-18T10:26:47.239Z,47.64
2023-04-18T10:29:50.685Z,47.18
2023-04-18T10:32:36.990Z,47.52
2023-04-18T10:35:23.305Z,47.24
2023-04-18T10:38:17.296Z,47.22
2023-04-18T10:41:26.100Z,47.00
2023-04-18T10:44:14.902Z,47.22
2023-04-18T10:47:02.633Z,47.26
2023-04-18T10:49:57.040Z,47.15
2023-04-18T10:52:43.781Z,46.73
2023-04-18T10:55:31.258Z,47.70
2023-04-18T10:58:17.848Z,47.78
2023-04-18T11:01:06.130Z,48.02
2023-04-18T11:03:53.485Z,48.10
2023-04-18T11:06:50.243Z,47.71
2023-04-18T11:09:38.565Z,47.57
2023-04-18T11:12:24.862Z,47.92
2023-04-18T11:15:17.620Z,48.04
2023-04-18T11:18:05.094Z,47.36
2023-04-18T11:20:52.527Z,47.16
2023-04-18T11:23:41.187Z,47.44
2023-04-18T11:26:29.211Z,47.49
2023-04-18T11:29:17.932Z,47.09
2023-04-18T11:32:08.959Z,47.43
2023-04-18T11:34:55.739Z,48.16
2023-04-18T11:37:45.757Z,47.92
2023-04-18T11:40:32.129Z,47.37
2023-04-18T11:43:25.456Z,46.14
2023-04-18T11:46:13.319Z,45.65
2023-04-18T11:48:59.653Z,46.20
2023-04-18T11:51:47.554Z,46.80
2023-04-18T11:54:44.956Z,46.37
2023-04-18T11:57:33.043Z,45.47
2023-04-18T12:00:30.947Z,45.35
2023-04-18T12:03:20.848Z,46.32
2023-04-18T12:06:07.546Z,46.25
2023-04-18T12:09:02.867Z,45.75
2023-04-18T12:12:07.349Z,44.91
2023-04-18T12:15:03.277Z,45.25
2023-04-18T12:17:52.541Z,45.38
2023-04-18T12:20:46.725Z,45.47
2023-04-18T12:23:38.866Z,45.66
2023-04-18T12:26:26.843Z,44.81
2023-04-18T12:29:13.834Z,44.77
2023-04-18T12:32:00.689Z,45.62
2023-04-18T12:34:47.332Z,45.40
2023-04-18T12:37:33.928Z,45.24
2023-04-18T12:40:22.939Z,44.92
2023-04-18T12:43:09.791Z,44.44
2023-04-18T12:45:56.700Z,43.20
2023-04-18T12:48:42.847Z,42.63
2023-04-18T12:51:29.046Z,42.91
2023-04-18T12:54:15.735Z,43.57
2023-04-18T12:57:03.294Z,43.54
2023-04-18T12:59:49.899Z,43.27
2023-04-18T13:02:50.725Z,42.94
2023-04-18T13:05:37.208Z,42.49
2023-04-18T13:08:23.867Z,42.27
2023-04-18T13:11:10.254Z,42.46
2023-04-18T13:13:56.977Z,42.16
2023-04-18T13:16:44.226Z,42.29
2023-04-18T13:19:30.781Z,41.76
2023-04-18T13:22:20.052Z,39.50
2023-04-18T13:25:08.456Z,36.77
2023-04-18T13:27:55.268Z,35.05
2023-04-18T13:30:41.767Z,35.87
2023-04-18T13:33:28.094Z,36.97
2023-04-18T13:36:14.563Z,37.57
2023-04-18T13:39:02.151Z,38.12
2023-04-18T13:41:48.619Z,37.71
2023-04-18T13:44:36.670Z,36.15
2023-04-18T13:47:23.531Z,33.95
2023-04-18T13:50:11.087Z,32.92
2023-04-18T13:52:57.740Z,30.10
2023-04-18T13:55:44.406Z,28.91
2023-04-18T13:58:30.997Z,28.91
2023-04-18T14:01:17.724Z,29.87
2023-04-18T14:04:04.276Z,31.22
2023-04-18T14:06:51.447Z,30.94
2023-04-18T14:09:38.087Z,29.18
2023-04-18T14:12:50.059Z,28.38
2023-04-18T14:19:04.294Z,30.73
2023-04-18T14:21:50.922Z,32.41
2023-04-18T14:24:37.351Z,33.52
2023-04-18T14:27:25.542Z,34.62
2023-04-18T14:30:12.648Z,35.67
2023-04-18T14:32:58.877Z,36.56
2023-04-18T14:35:46.037Z,37.71
2023-04-18T14:38:33.289Z,38.49
2023-04-18T14:41:19.568Z,39.60
2023-04-18T14:44:06.753Z,39.90
2023-04-18T14:46:53.294Z,40.65
2023-04-18T14:49:40.296Z,41.04
2023-04-18T14:52:26.714Z,41.36
2023-04-18T14:55:13.691Z,42.02
2023-04-18T14:58:01.327Z,42.43
2023-04-18T15:00:49.109Z,42.96
2023-04-18T15:03:35.852Z,43.71
2023-04-18T15:06:23.240Z,43.80
2023-04-18T15:09:09.883Z,44.06
2023-04-18T15:11:58.248Z,44.79
2023-04-18T15:14:45.224Z,45.16
2023-04-18T15:17:31.869Z,45.74
2023-04-18T15:20:18.790Z,45.94
2023-04-18T15:23:05.304Z,46.05
2023-04-18T15:25:51.621Z,46.30
2023-04-18T15:28:37.950Z,46.81
2023-04-18T15:31:24.616Z,47.17
2023-04-18T15:34:11.873Z,47.64
2023-04-18T15:36:58.716Z,48.16
2023-04-18T15:39:45.295Z,48.11
2023-04-18T15:42:31.649Z,49.28
2023-04-18T15:45:18.538Z,49.00
2023-04-18T15:48:05.604Z,49.66
2023-04-18T15:50:52.606Z,49.36
2023-04-18T15:53:39.252Z,49.90
2023-04-18T15:56:26.870Z,50.28
2023-04-18T15:59:13.678Z,49.97
2023-04-18T16:02:00.660Z,50.44
2023-04-18T16:04:47.140Z,50.44
2023-04-18T16:07:33.915Z,50.64
2023-04-18T16:10:20.606Z,50.59
2023-04-18T16:13:06.873Z,50.74
2023-04-18T16:15:53.101Z,50.90
2023-04-18T16:18:40.588Z,51.13
2023-04-18T16:21:28.238Z,51.45
2023-04-18T16:24:18.408Z,51.74
2023-04-18T16:27:05.264Z,51.86
2023-04-18T16:29:51.483Z,52.66
2023-04-18T16:32:38.861Z,52.41
2023-04-18T16:35:25.590Z,52.55
2023-04-18T16:38:12.075Z,52.98
2023-04-18T16:40:59.676Z,53.36
2023-04-18T16:43:46.539Z,53.48
2023-04-18T16:46:33.320Z,52.88
2023-04-18T16:49:20.567Z,52.94
2023-04-18T16:52:07.371Z,53.30
2023-04-18T16:54:53.821Z,53.31
2023-04-18T16:57:40.402Z,53.33
2023-04-18T17:00:27.338Z,53.54
2023-04-18T17:03:14.372Z,54.18
2023-04-18T17:06:01.629Z,54.17
2023-04-18T17:08:49.250Z,54.93
2023-04-18T17:11:39.634Z,54.56
2023-04-18T17:14:26.730Z,55.38
2023-04-18T17:17:13.290Z,55.37
2023-04-18T17:20:00.027Z,55.58
2023-04-18T17:22:46.687Z,56.02
2023-04-18T17:25:33.136Z,56.64
2023-04-18T17:28:21.714Z,57.36
2023-04-18T17:31:08.306Z,57.98
2023-04-18T17:33:54.927Z,58.38
2023-04-18T17:36:41.874Z,57.84
2023-04-18T17:39:28.555Z,58.09
2023-04-18T17:42:15.398Z,58.66
2023-04-18T17:45:03.759Z,58.72
2023-04-18T17:47:50.942Z,58.75
2023-04-18T17:50:38.097Z,59.15
2023-04-18T17:53:24.539Z,59.55
2023-04-18T17:56:11.610Z,60.25
2023-04-18T17:58:57.880Z,60.35
2023-04-18T18:01:44.251Z,60.69
2023-04-18T18:04:31.041Z,60.56
2023-04-18T18:07:18.448Z,60.46
2023-04-18T18:10:05.496Z,61.01
2023-04-18T18:12:51.859Z,60.89
2023-04-18T18:15:39.046Z,60.87
2023-04-18T18:18:26.366Z,60.79
2023-04-18T18:21:12.954Z,60.78
2023-04-18T18:23:59.307Z,60.86
2023-04-18T18:26:45.869Z,60.73
2023-04-18T18:29:32.254Z,61.05
2023-04-18T18:32:18.869Z,61.14
2023-04-18T18:35:06.245Z,61.29
2023-04-18T18:37:52.813Z,61.72
2023-04-18T18:40:39.543Z,61.63
2023-04-18T18:43:26.558Z,61.84
2023-04-18T18:46:15.029Z,62.10
2023-04-18T18:49:01.664Z,61.86
2023-04-18T18:51:48.451Z,62.49
2023-04-18T18:54:35.028Z,62.34
2023-04-18T18:57:21.626Z,62.80
2023-04-18T19:00:11.869Z,62.78
2023-04-18T19:02:58.266Z,62.60
2023-04-18T19:05:46.421Z,62.87
2023-04-18T19:08:33.835Z,62.93
2023-04-18T19:11:21.175Z,63.22
2023-04-18T19:14:07.829Z,62.85
2023-04-18T19:16:56.042Z,61.73
2023-04-18T19:19:42.809Z,60.66
2023-04-18T19:22:30.008Z,59.19
2023-04-18T19:25:16.709Z,57.81
2023-04-18T19:28:05.834Z,57.27
2023-04-18T19:30:53.164Z,56.63
2023-04-18T19:33:39.386Z,56.32
2023-04-18T19:36:26.734Z,55.53
2023-04-18T19:39:13.779Z,54.95
2023-04-18T19:42:00.648Z,55.16
2023-04-18T19:44:46.970Z,53.82
2023-04-18T19:47:34.036Z,54.53
2023-04-18T19:50:20.460Z,52.62
2023-04-18T19:53:06.897Z,51.01
2023-04-18T19:55:55.043Z,48.67
2023-04-18T19:58:46.224Z,47.45
2023-04-18T20:01:32.919Z,47.41
2023-04-18T20:04:19.576Z,45.20
2023-04-18T20:07:06.428Z,45.14
2023-04-18T20:09:53.126Z,45.58
2023-04-18T20:12:39.798Z,44.90
2023-04-18T20:15:26.156Z,44.06
2023-04-18T20:18:12.678Z,45.13
2023-04-18T20:20:58.761Z,43.13
2023-04-18T20:23:45.314Z,43.33
2023-04-18T20:26:31.810Z,43.27
2023-04-18T20:29:18.334Z,42.81
2023-04-18T20:32:05.809Z,42.71
2023-04-18T20:34:52.287Z,42.95
2023-04-18T20:37:39.276Z,43.16
2023-04-18T20:40:26.152Z,44.31
2023-04-18T20:43:13.560Z,43.98
2023-04-18T20:46:01.003Z,43.64
2023-04-18T20:48:47.545Z,44.62
2023-04-18T20:51:38.134Z,43.89
2023-04-18T20:54:24.690Z,43.97
2023-04-18T20:57:11.114Z,44.91
2023-04-18T20:59:58.672Z,44.70
2023-04-18T21:02:45.259Z,44.40
2023-04-18T21:05:32.477Z,44.81
2023-04-18T21:08:19.522Z,45.20
2023-04-18T21:11:07.128Z,45.13
2023-04-18T21:13:53.497Z,45.47
2023-04-18T21:16:40.083Z,44.70
2023-04-18T21:19:27.144Z,44.95
2023-04-18T21:22:15.270Z,44.87
2023-04-18T21:25:01.771Z,45.49
2023-04-18T21:27:50.782Z,45.63
2023-04-18T21:30:37.320Z,45.61
2023-04-18T21:33:24.566Z,45.43
2023-04-18T21:36:11.180Z,45.72
2023-04-18T21:38:59.634Z,45.76
2023-04-18T21:41:45.917Z,45.97
2023-04-18T21:44:32.829Z,46.24
2023-04-18T21:47:19.713Z,46.12
2023-04-18T21:50:07.265Z,46.24
2023-04-18T21:52:53.380Z,46.10
2023-04-18T21:55:40.168Z,46.22
2023-04-18T21:58:27.486Z,46.29
2023-04-18T22:01:13.757Z,46.23
2023-04-18T22:04:02.128Z,46.35
2023-04-18T22:06:48.823Z,46.52
2023-04-18T22:09:36.385Z,46.92
2023-04-18T22:12:22.665Z,46.99
2023-04-18T22:15:10.426Z,47.39
2023-04-18T22:17:57.866Z,47.71
2023-04-18T22:20:45.253Z,47.97
2023-04-18T22:23:32.101Z,48.08
2023-04-18T22:26:18.266Z,48.46
2023-04-18T22:29:05.298Z,48.74
2023-04-18T22:31:51.767Z,48.80
2023-04-18T22:34:37.969Z,49.20
2023-04-18T22:37:24.627Z,49.27
2023-04-18T22:40:12.515Z,49.68
2023-04-18T22:42:59.206Z,49.80
2023-04-18T22:45:45.631Z,50.40
2023-04-18T22:48:31.927Z,50.72
2023-04-18T22:51:18.818Z,50.89
2023-04-18T22:54:05.283Z,51.06
2023-04-18T22:56:51.718Z,51.18
2023-04-18T22:59:38.066Z,51.53
2023-04-18T23:02:24.786Z,51.85
2023-04-18T23:05:11.949Z,52.15
2023-04-18T23:08:00.219Z,52.35
2023-04-18T23:10:46.801Z,52.31
2023-04-18T23:13:33.246Z,52.38
2023-04-18T23:16:19.829Z,52.72
2023-04-18T23:19:06.251Z,52.66
2023-04-18T23:21:52.605Z,53.19
2023-04-18T23:24:39.007Z,53.22
2023-04-18T23:27:25.401Z,53.66
2023-04-18T23:30:12.950Z,53.28
2023-04-18T23:32:59.533Z,53.72
2023-04-18T23:35:46.154Z,53.60
2023-04-18T23:38:33.469Z,53.72
2023-04-18T23:41:20.537Z,53.73
2023-04-18T23:44:07.233Z,54.12
2023-04-18T23:46:53.905Z,54.55
2023-04-18T23:49:40.556Z,54.99
2023-04-18T23:52:27.398Z,55.54
2023-04-18T23:55:14.687Z,55.95
2023-04-18T23:58:01.406Z,56.44
